createdAt,value
2023-05-05T00:00:01.628Z,0
2023-05-05T00:01:01.652Z,0
2023-05-05T00:02:01.755Z,0
2023-05-05T00:03:01.668Z,0
2023-05-05T00:04:01.687Z,0
2023-05-05T00:05:01.629Z,0
2023-05-05T00:06:01.626Z,0
2023-05-05T00:07:01.635Z,0
2023-05-05T00:08:01.624Z,0
2023-05-05T00:09:01.647Z,0
2023-05-05T00:10:01.636Z,0
2023-05-05T00:11:01.623Z,0
2023-05-05T00:12:01.642Z,0
2023-05-05T00:13:01.677Z,0
2023-05-05T00:14:01.660Z,0
2023-05-05T00:15:01.624Z,0
2023-05-05T00:16:01.630Z,0
2023-05-05T00:17:01.657Z,0
2023-05-05T00:18:01.842Z,0
2023-05-05T00:19:01.641Z,0
2023-05-05T00:20:01.656Z,0
2023-05-05T00:21:01.632Z,0
2023-05-05T00:22:01.643Z,0
2023-05-05T00:23:01.629Z,0
2023-05-05T00:24:01.651Z,0
2023-05-05T00:25:01.623Z,0
2023-05-05T00:26:01.632Z,0
2023-05-05T00:27:01.631Z,0
2023-05-05T00:28:01.629Z,0
2023-05-05T00:29:01.655Z,0
2023-05-05T00:30:01.657Z,0
2023-05-05T00:31:01.728Z,0
2023-05-05T00:32:01.647Z,0
2023-05-05T00:33:01.865Z,0
2023-05-05T00:34:01.652Z,0
2023-05-05T00:35:01.623Z,0
2023-05-05T00:36:01.647Z,0
2023-05-05T00:37:01.639Z,0
2023-05-05T00:38:01.630Z,0
2023-05-05T00:39:01.638Z,0
2023-05-05T00:40:01.642Z,0
2023-05-05T00:41:01.633Z,0
2023-05-05T00:42:01.641Z,0
2023-05-05T00:43:01.638Z,0
2023-05-05T00:44:01.637Z,0
2023-05-05T00:45:01.633Z,0
2023-05-05T00:46:01.677Z,0
2023-05-05T00:47:01.625Z,0
2023-05-05T00:48:01.787Z,0
2023-05-05T00:49:01.684Z,0
2023-05-05T00:50:01.662Z,0
2023-05-05T00:51:01.645Z,0
2023-05-05T00:52:01.637Z,0
2023-05-05T00:53:01.642Z,0
2023-05-05T00:54:01.683Z,0
2023-05-05T00:55:01.629Z,0
2023-05-05T00:56:01.644Z,0
2023-05-05T00:57:01.633Z,0
2023-05-05T00:58:01.644Z,0
2023-05-05T00:59:01.648Z,0
2023-05-05T01:00:01.635Z,0
2023-05-05T01:01:01.631Z,0
2023-05-05T01:02:01.774Z,0
2023-05-05T01:03:01.746Z,0
2023-05-05T01:04:01.685Z,0
2023-05-05T01:05:01.647Z,0
2023-05-05T01:06:01.645Z,0
2023-05-05T01:07:01.638Z,0
2023-05-05T01:08:01.637Z,0
2023-05-05T01:09:01.687Z,0
2023-05-05T01:10:18.155Z,0
2023-05-05T01:11:01.644Z,0
2023-05-05T01:12:01.641Z,0
2023-05-05T01:13:01.720Z,0
2023-05-05T01:14:01.648Z,0
2023-05-05T01:15:01.652Z,0
2023-05-05T01:16:01.709Z,0
2023-05-05T01:17:01.638Z,0
2023-05-05T01:18:01.775Z,0
2023-05-05T01:19:01.657Z,0
2023-05-05T01:20:01.668Z,0
2023-05-05T01:21:01.636Z,0
2023-05-05T01:22:01.636Z,0
2023-05-05T01:23:01.650Z,0
2023-05-05T01:24:01.653Z,0
2023-05-05T01:25:01.628Z,0
2023-05-05T01:26:01.626Z,0
2023-05-05T01:27:01.629Z,0
2023-05-05T01:28:01.635Z,0
2023-05-05T01:29:01.653Z,0
2023-05-05T01:30:01.655Z,0
2023-05-05T01:31:01.642Z,0
2023-05-05T01:32:01.775Z,0
2023-05-05T01:33:01.638Z,0
2023-05-05T01:34:01.665Z,0
2023-05-05T01:35:01.634Z,0
2023-05-05T01:36:01.643Z,0
2023-05-05T01:37:01.636Z,0
2023-05-05T01:38:01.622Z,0
2023-05-05T01:39:01.651Z,0
2023-05-05T01:40:01.626Z,0
2023-05-05T01:41:01.631Z,0
2023-05-05T01:42:01.637Z,0
2023-05-05T01:43:01.654Z,0
2023-05-05T01:44:01.650Z,0
2023-05-05T01:45:01.634Z,0
2023-05-05T01:46:01.668Z,0
2023-05-05T01:47:01.636Z,0
2023-05-05T01:48:01.664Z,0
2023-05-05T01:49:01.646Z,0
2023-05-05T01:50:01.630Z,0
2023-05-05T01:51:01.627Z,0
2023-05-05T01:52:01.626Z,0
2023-05-05T01:53:01.627Z,0
2023-05-05T01:54:01.683Z,0
2023-05-05T01:55:01.621Z,0
2023-05-05T01:56:01.653Z,0
2023-05-05T01:57:01.622Z,0
2023-05-05T01:58:01.628Z,0
2023-05-05T01:59:01.653Z,0
2023-05-05T02:00:01.651Z,0
2023-05-05T02:01:01.669Z,0
2023-05-05T02:02:01.677Z,0
2023-05-05T02:03:01.698Z,0
2023-05-05T02:04:01.648Z,0
2023-05-05T02:05:01.645Z,0
2023-05-05T02:06:01.616Z,0
2023-05-05T02:07:01.637Z,0
2023-05-05T02:08:01.618Z,0
2023-05-05T02:09:01.650Z,0
2023-05-05T02:10:01.637Z,0
2023-05-05T02:11:01.626Z,0
2023-05-05T02:12:01.632Z,0
2023-05-05T02:13:01.638Z,0
2023-05-05T02:14:01.677Z,0
2023-05-05T02:15:01.637Z,0
2023-05-05T02:16:01.677Z,0
2023-05-05T02:17:01.628Z,0
2023-05-05T02:18:01.700Z,0
2023-05-05T02:19:01.643Z,0
2023-05-05T02:20:01.630Z,0
2023-05-05T02:21:01.624Z,0
2023-05-05T02:22:01.639Z,0
2023-05-05T02:23:01.624Z,0
2023-05-05T02:24:01.651Z,0
2023-05-05T02:25:01.644Z,0
2023-05-05T02:26:01.641Z,0
2023-05-05T02:27:01.653Z,0
2023-05-05T02:28:01.658Z,0
2023-05-05T02:29:01.658Z,0
2023-05-05T02:30:01.644Z,0
2023-05-05T02:31:01.683Z,0
2023-05-05T02:32:01.636Z,0
2023-05-05T02:33:01.704Z,0
2023-05-05T02:34:01.649Z,0
2023-05-05T02:35:01.632Z,0
2023-05-05T02:36:01.640Z,0
2023-05-05T02:37:01.637Z,0
2023-05-05T02:38:01.633Z,0
2023-05-05T02:39:01.674Z,0
2023-05-05T02:40:01.669Z,0
2023-05-05T02:41:01.652Z,0
2023-05-05T02:42:01.649Z,0
2023-05-05T02:43:01.690Z,0
2023-05-05T02:44:01.649Z,0
2023-05-05T02:45:01.654Z,0
2023-05-05T02:46:01.693Z,0
2023-05-05T02:47:01.634Z,0
2023-05-05T02:48:01.683Z,0
2023-05-05T02:49:01.650Z,0
2023-05-05T02:50:01.643Z,0
2023-05-05T02:51:01.635Z,0
2023-05-05T02:52:01.656Z,0
2023-05-05T02:53:01.642Z,0
2023-05-05T02:54:01.659Z,0
2023-05-05T02:55:01.645Z,0
2023-05-05T02:56:01.632Z,0
2023-05-05T02:57:01.634Z,0
2023-05-05T02:58:01.630Z,0
2023-05-05T02:59:01.650Z,0
2023-05-05T03:00:01.636Z,0
2023-05-05T03:01:01.645Z,1
2023-05-05T03:02:01.645Z,1
2023-05-05T03:03:01.677Z,1
2023-05-05T03:04:01.644Z,3
2023-05-05T03:05:01.641Z,3
2023-05-05T03:06:01.630Z,5
2023-05-05T03:07:01.619Z,7
2023-05-05T03:08:01.626Z,9
2023-05-05T03:09:01.646Z,9
2023-05-05T03:10:01.634Z,12
2023-05-05T03:11:01.634Z,14
2023-05-05T03:12:01.631Z,16
2023-05-05T03:13:01.681Z,20
2023-05-05T03:14:01.655Z,22
2023-05-05T03:15:01.638Z,25
2023-05-05T03:16:01.654Z,31
2023-05-05T03:17:01.641Z,35
2023-05-05T03:18:01.718Z,38
2023-05-05T03:19:01.658Z,44
2023-05-05T03:20:04.796Z,49
2023-05-05T03:21:01.635Z,55
2023-05-05T03:22:01.639Z,62
2023-05-05T03:23:01.637Z,70
2023-05-05T03:24:01.650Z,77
2023-05-05T03:25:01.656Z,86
2023-05-05T03:26:01.645Z,97
2023-05-05T03:27:01.646Z,110
2023-05-05T03:28:01.635Z,125
2023-05-05T03:29:01.641Z,140
2023-05-05T03:30:01.648Z,154
2023-05-05T03:31:01.635Z,169
2023-05-05T03:32:01.674Z,182
2023-05-05T03:33:01.669Z,197
2023-05-05T03:34:01.649Z,213
2023-05-05T03:35:01.622Z,232
2023-05-05T03:36:01.644Z,250
2023-05-05T03:37:01.634Z,270
2023-05-05T03:38:01.645Z,293
2023-05-05T03:39:01.641Z,313
2023-05-05T03:40:01.638Z,335
2023-05-05T03:41:01.638Z,359
2023-05-05T03:42:01.637Z,385
2023-05-05T03:43:01.636Z,407
2023-05-05T03:44:01.655Z,431
2023-05-05T03:45:01.634Z,453
2023-05-05T03:46:01.640Z,453
2023-05-05T03:47:01.633Z,508
2023-05-05T03:48:01.699Z,536
2023-05-05T03:49:01.651Z,564
2023-05-05T03:50:01.666Z,593
2023-05-05T03:51:01.630Z,624
2023-05-05T03:52:01.700Z,658
2023-05-05T03:53:01.627Z,689
2023-05-05T03:54:01.652Z,718
2023-05-05T03:55:01.670Z,752
2023-05-05T03:56:01.632Z,787
2023-05-05T03:57:01.636Z,825
2023-05-05T03:58:01.645Z,860
2023-05-05T03:59:01.648Z,901
2023-05-05T04:00:01.647Z,941
2023-05-05T04:01:01.631Z,982
2023-05-05T04:02:01.663Z,1021
2023-05-05T04:03:01.729Z,1061
2023-05-05T04:04:01.682Z,1093
2023-05-05T04:05:01.638Z,1126
2023-05-05T04:06:01.634Z,1152
2023-05-05T04:07:01.637Z,1175
2023-05-05T04:08:01.642Z,1188
2023-05-05T04:09:01.636Z,1205
2023-05-05T04:10:01.678Z,1222
2023-05-05T04:11:01.634Z,1242
2023-05-05T04:12:01.634Z,1262
2023-05-05T04:13:01.673Z,1286
2023-05-05T04:14:01.652Z,1299
2023-05-05T04:15:01.639Z,1323
2023-05-05T04:16:01.741Z,1347
2023-05-05T04:17:01.640Z,1371
2023-05-05T04:18:01.657Z,1400
2023-05-05T04:19:01.654Z,1432
2023-05-05T04:20:01.738Z,1456
2023-05-05T04:21:01.634Z,1481
2023-05-05T04:22:01.648Z,1496
2023-05-05T04:23:01.637Z,1528
2023-05-05T04:24:01.653Z,1537
2023-05-05T04:25:01.631Z,1544
2023-05-05T04:26:01.649Z,1566
2023-05-05T04:27:01.639Z,1568
2023-05-05T04:28:01.674Z,1585
2023-05-05T04:29:01.654Z,1605
2023-05-05T04:30:01.628Z,1622
2023-05-05T04:31:01.678Z,1640
2023-05-05T04:32:01.653Z,1662
2023-05-05T04:33:01.688Z,1695
2023-05-05T04:34:01.646Z,1741
2023-05-05T04:35:01.633Z,1773
2023-05-05T04:36:01.645Z,1802
2023-05-05T04:37:01.654Z,1802
2023-05-05T04:38:01.637Z,1786
2023-05-05T04:39:01.653Z,1804
2023-05-05T04:40:01.634Z,1817
2023-05-05T04:41:01.641Z,1841
2023-05-05T04:42:01.630Z,1854
2023-05-05T04:43:01.647Z,1867
2023-05-05T04:44:01.662Z,1898
2023-05-05T04:45:01.655Z,1918
2023-05-05T04:46:01.636Z,1948
2023-05-05T04:47:01.642Z,1985
2023-05-05T04:48:01.692Z,2033
2023-05-05T04:49:01.642Z,2101
2023-05-05T04:50:01.651Z,2136
2023-05-05T04:51:01.641Z,2202
2023-05-05T04:52:01.642Z,2256
2023-05-05T04:53:01.630Z,2364
2023-05-05T04:54:01.645Z,2449
2023-05-05T04:55:01.675Z,2525
2023-05-05T04:56:01.634Z,2608
2023-05-05T04:57:01.644Z,2650
2023-05-05T04:58:01.636Z,2680
2023-05-05T04:59:01.654Z,2759
2023-05-05T05:00:01.641Z,2862
2023-05-05T05:01:01.638Z,2921
2023-05-05T05:02:01.661Z,2980
2023-05-05T05:03:01.769Z,2993
2023-05-05T05:04:01.691Z,3028
2023-05-05T05:05:01.636Z,3050
2023-05-05T05:06:01.638Z,3100
2023-05-05T05:07:01.647Z,3150
2023-05-05T05:08:01.633Z,3166
2023-05-05T05:09:01.653Z,3203
2023-05-05T05:10:01.637Z,3238
2023-05-05T05:11:01.650Z,3234
2023-05-05T05:12:01.645Z,3253
2023-05-05T05:13:01.727Z,3240
2023-05-05T05:14:01.670Z,3267
2023-05-05T05:15:01.632Z,3269
2023-05-05T05:16:01.672Z,3273
2023-05-05T05:17:01.634Z,3267
2023-05-05T05:18:01.701Z,3271
2023-05-05T05:19:02.011Z,3253
2023-05-05T05:20:01.640Z,3260
2023-05-05T05:21:01.642Z,3223
2023-05-05T05:22:01.632Z,3186
2023-05-05T05:23:01.635Z,3205
2023-05-05T05:24:01.649Z,3186
2023-05-05T05:25:01.638Z,3116
2023-05-05T05:26:01.637Z,3135
2023-05-05T05:27:01.635Z,3205
2023-05-05T05:28:10.045Z,3245
2023-05-05T05:29:01.652Z,3310
2023-05-05T05:30:01.634Z,3345
2023-05-05T05:31:01.646Z,3402
2023-05-05T05:32:01.746Z,3494
2023-05-05T05:33:01.667Z,3575
2023-05-05T05:34:01.636Z,3702
2023-05-05T05:35:01.656Z,3749
2023-05-05T05:36:01.642Z,3859
2023-05-05T05:37:01.637Z,3892
2023-05-05T05:38:01.631Z,3920
2023-05-05T05:39:01.631Z,3920
2023-05-05T05:40:01.636Z,4075
2023-05-05T05:41:01.641Z,4167
2023-05-05T05:42:01.631Z,4294
2023-05-05T05:43:01.639Z,4508
2023-05-05T05:44:01.652Z,4552
2023-05-05T05:45:01.632Z,4711
2023-05-05T05:46:01.707Z,4823
2023-05-05T05:47:01.624Z,5137
2023-05-05T05:48:01.698Z,5195
2023-05-05T05:49:01.630Z,5336
2023-05-05T05:50:01.632Z,5417
2023-05-05T05:51:01.639Z,5559
2023-05-05T05:52:01.625Z,5664
2023-05-05T05:53:01.638Z,5730
2023-05-05T05:54:01.634Z,5765
2023-05-05T05:55:01.634Z,5758
2023-05-05T05:56:01.670Z,5708
2023-05-05T05:57:01.658Z,5645
2023-05-05T05:58:01.646Z,5518
2023-05-05T05:59:01.803Z,5477
2023-05-05T06:00:02.234Z,5339
2023-05-05T06:01:01.630Z,5266
2023-05-05T06:02:01.719Z,5236
2023-05-05T06:03:01.731Z,5173
2023-05-05T06:04:01.730Z,5166
2023-05-05T06:05:01.633Z,5131
2023-05-05T06:06:01.627Z,5094
2023-05-05T06:07:01.630Z,5090
2023-05-05T06:08:01.644Z,5046
2023-05-05T06:09:01.640Z,5065
2023-05-05T06:10:14.421Z,5063
2023-05-05T06:11:01.635Z,5074
2023-05-05T06:12:01.629Z,5113
2023-05-05T06:13:01.754Z,5284
2023-05-05T06:14:01.650Z,5205
2023-05-05T06:15:01.639Z,5363
2023-05-05T06:16:01.723Z,5325
2023-05-05T06:17:01.631Z,5431
2023-05-05T06:18:01.749Z,5490
2023-05-05T06:19:01.626Z,5461
2023-05-05T06:20:01.642Z,5420
2023-05-05T06:21:01.634Z,5527
2023-05-05T06:22:01.664Z,5741
2023-05-05T06:23:01.657Z,5783
2023-05-05T06:24:01.636Z,5901
2023-05-05T06:25:01.624Z,5852
2023-05-05T06:26:01.646Z,5844
2023-05-05T06:27:01.637Z,5833
2023-05-05T06:28:01.646Z,5802
2023-05-05T06:29:01.664Z,5811
2023-05-05T06:30:01.641Z,5848
2023-05-05T06:31:01.666Z,5854
2023-05-05T06:32:01.636Z,5793
2023-05-05T06:33:01.657Z,5719
2023-05-05T06:34:01.632Z,5802
2023-05-05T06:35:01.654Z,5859
2023-05-05T06:36:01.647Z,5898
2023-05-05T06:37:01.635Z,5806
2023-05-05T06:38:01.652Z,5920
2023-05-05T06:39:01.636Z,5920
2023-05-05T06:40:01.630Z,6467
2023-05-05T06:41:01.633Z,6838
2023-05-05T06:42:01.632Z,7055
2023-05-05T06:43:01.644Z,7300
2023-05-05T06:44:01.647Z,7520
2023-05-05T06:45:01.670Z,7874
2023-05-05T06:46:01.668Z,9518
2023-05-05T06:47:01.702Z,11547
2023-05-05T06:48:01.675Z,11123
2023-05-05T06:49:01.632Z,10705
2023-05-05T06:50:01.638Z,10310
2023-05-05T06:51:01.812Z,11018
2023-05-05T06:52:01.642Z,7909
2023-05-05T06:53:01.657Z,10159
2023-05-05T06:54:01.661Z,9881
2023-05-05T06:55:01.631Z,9357
2023-05-05T06:56:01.636Z,7300
2023-05-05T06:57:01.646Z,9134
2023-05-05T06:58:01.641Z,10227
2023-05-05T06:59:01.650Z,10972
2023-05-05T07:00:01.641Z,11348
2023-05-05T07:01:01.641Z,11774
2023-05-05T07:02:01.645Z,11800
2023-05-05T07:03:01.677Z,11009
2023-05-05T07:04:01.680Z,10847
2023-05-05T07:05:01.636Z,12883
2023-05-05T07:06:01.648Z,12858
2023-05-05T07:07:01.633Z,13083
2023-05-05T07:08:01.639Z,13272
2023-05-05T07:09:01.635Z,10436
2023-05-05T07:10:01.650Z,9840
2023-05-05T07:11:01.636Z,10074
2023-05-05T07:12:01.633Z,14209
2023-05-05T07:13:01.652Z,13556
2023-05-05T07:14:01.663Z,13396
2023-05-05T07:15:07.036Z,13092
2023-05-05T07:16:01.661Z,12683
2023-05-05T07:17:01.708Z,12808
2023-05-05T07:18:01.693Z,13864
2023-05-05T07:19:01.626Z,14082
2023-05-05T07:20:01.638Z,12067
2023-05-05T07:21:01.655Z,12314
2023-05-05T07:22:01.634Z,12882
2023-05-05T07:23:01.653Z,10874
2023-05-05T07:24:01.628Z,11518
2023-05-05T07:25:01.632Z,12034
2023-05-05T07:26:01.639Z,12377
2023-05-05T07:27:01.633Z,12695
2023-05-05T07:28:01.660Z,11005
2023-05-05T07:29:01.652Z,11658
2023-05-05T07:30:01.901Z,10360
2023-05-05T07:31:01.633Z,12275
2023-05-05T07:32:01.675Z,10954
2023-05-05T07:33:01.699Z,11614
2023-05-05T07:34:01.681Z,14037
2023-05-05T07:35:01.635Z,14411
2023-05-05T07:36:01.624Z,14541
2023-05-05T07:37:01.648Z,14511
2023-05-05T07:38:01.647Z,13936
2023-05-05T07:39:01.637Z,13936
2023-05-05T07:40:01.643Z,13462
2023-05-05T07:41:01.638Z,13674
2023-05-05T07:42:01.634Z,14109
2023-05-05T07:43:01.659Z,14950
2023-05-05T07:44:01.642Z,14998
2023-05-05T07:45:01.662Z,15147
2023-05-05T07:46:01.666Z,15206
2023-05-05T07:47:01.630Z,15348
2023-05-05T07:48:01.767Z,15342
2023-05-05T07:49:01.640Z,15228
2023-05-05T07:50:01.628Z,15042
2023-05-05T07:51:01.637Z,15224
2023-05-05T07:52:01.704Z,15171
2023-05-05T07:53:13.610Z,14944
2023-05-05T07:54:01.670Z,14655
2023-05-05T07:55:01.639Z,14815
2023-05-05T07:56:01.630Z,15234
2023-05-05T07:57:01.637Z,15597
2023-05-05T07:58:01.659Z,15814
2023-05-05T07:59:01.654Z,15678
2023-05-05T08:00:01.628Z,15383
2023-05-05T08:01:01.633Z,15025
2023-05-05T08:02:01.666Z,14730
2023-05-05T08:03:01.793Z,15370
2023-05-05T08:04:01.712Z,15383
2023-05-05T08:05:01.636Z,15025
2023-05-05T08:06:01.683Z,16087
2023-05-05T08:07:01.633Z,16126
2023-05-05T08:08:01.646Z,16251
2023-05-05T08:09:01.629Z,16531
2023-05-05T08:10:01.652Z,16763
2023-05-05T08:11:01.662Z,16948
2023-05-05T08:12:01.648Z,17042
2023-05-05T08:13:01.685Z,16660
2023-05-05T08:14:01.643Z,16446
2023-05-05T08:15:01.620Z,16625
2023-05-05T08:16:01.640Z,16809
2023-05-05T08:17:01.635Z,16791
2023-05-05T08:18:01.680Z,16828
2023-05-05T08:19:01.622Z,16850
2023-05-05T08:20:01.627Z,16900
2023-05-05T08:21:01.645Z,16911
2023-05-05T08:22:01.745Z,16821
2023-05-05T08:23:01.648Z,16988
2023-05-05T08:24:01.630Z,17235
2023-05-05T08:25:01.629Z,17322
2023-05-05T08:26:01.625Z,17079
2023-05-05T08:27:01.628Z,17434
2023-05-05T08:28:01.643Z,17834
2023-05-05T08:29:01.672Z,17816
2023-05-05T08:30:01.669Z,17281
2023-05-05T08:31:01.673Z,17069
2023-05-05T08:32:01.666Z,17576
2023-05-05T08:33:01.710Z,17361
2023-05-05T08:34:01.636Z,18444
2023-05-05T08:35:01.625Z,18159
2023-05-05T08:36:01.636Z,19091
2023-05-05T08:37:01.631Z,17840
2023-05-05T08:38:01.643Z,19407
2023-05-05T08:39:01.624Z,19407
2023-05-05T08:40:01.629Z,18260
2023-05-05T08:41:01.641Z,17702
2023-05-05T08:42:01.630Z,18282
2023-05-05T08:43:01.650Z,18074
2023-05-05T08:44:01.645Z,18144
2023-05-05T08:45:01.622Z,18384
2023-05-05T08:46:01.626Z,18691
2023-05-05T08:47:01.742Z,18690
2023-05-05T08:48:01.709Z,18948
2023-05-05T08:49:01.630Z,19012
2023-05-05T08:50:01.628Z,19056
2023-05-05T08:51:03.999Z,19233
2023-05-05T08:52:01.624Z,19410
2023-05-05T08:53:01.676Z,19268
2023-05-05T08:54:01.624Z,18822
2023-05-05T08:55:01.623Z,18625
2023-05-05T08:56:01.636Z,18597
2023-05-05T08:57:01.644Z,18677
2023-05-05T08:58:01.644Z,18961
2023-05-05T08:59:01.645Z,19368
2023-05-05T09:00:01.624Z,19510
2023-05-05T09:01:01.734Z,19554
2023-05-05T09:02:01.699Z,19462
2023-05-05T09:03:01.815Z,20433
2023-05-05T09:04:01.624Z,20157
2023-05-05T09:05:01.623Z,20430
2023-05-05T09:06:01.640Z,20011
2023-05-05T09:07:01.624Z,20223
2023-05-05T09:08:01.654Z,20743
2023-05-05T09:09:01.625Z,20518
2023-05-05T09:10:01.623Z,21257
2023-05-05T09:11:01.648Z,19388
2023-05-05T09:12:01.620Z,19451
2023-05-05T09:13:01.683Z,19895
2023-05-05T09:14:01.664Z,20721
2023-05-05T09:15:01.654Z,20898
2023-05-05T09:16:01.654Z,20601
2023-05-05T09:17:01.673Z,20667
2023-05-05T09:18:01.689Z,20621
2023-05-05T09:19:01.626Z,20721
2023-05-05T09:20:01.628Z,20695
2023-05-05T09:21:01.622Z,20984
2023-05-05T09:22:01.635Z,21515
2023-05-05T09:23:01.635Z,21609
2023-05-05T09:24:07.827Z,21325
2023-05-05T09:25:01.616Z,21419
2023-05-05T09:26:01.625Z,20942
2023-05-05T09:27:01.624Z,20942
2023-05-05T09:28:01.642Z,20531
2023-05-05T09:29:01.655Z,20531
2023-05-05T09:30:01.628Z,20531
2023-05-05T09:31:01.658Z,20531
2023-05-05T09:32:01.629Z,20531
2023-05-05T09:33:01.668Z,20531
2023-05-05T09:34:01.629Z,20531
2023-05-05T09:35:01.644Z,20533
2023-05-05T09:36:01.635Z,20369
2023-05-05T09:37:01.625Z,20807
2023-05-05T09:38:01.626Z,21060
2023-05-05T09:39:01.624Z,21060
2023-05-05T09:40:01.622Z,20804
2023-05-05T09:41:01.638Z,21209
2023-05-05T09:42:01.620Z,21065
2023-05-05T09:43:01.627Z,20852
2023-05-05T09:44:01.639Z,20712
2023-05-05T09:45:01.642Z,20699
2023-05-05T09:46:01.769Z,20809
2023-05-05T09:47:01.660Z,20732
2023-05-05T09:48:01.657Z,20988
2023-05-05T09:49:01.626Z,21303
2023-05-05T09:50:01.640Z,21012
2023-05-05T09:51:01.626Z,20590
2023-05-05T09:52:01.632Z,20623
2023-05-05T09:53:01.712Z,20647
2023-05-05T09:54:01.627Z,20529
2023-05-05T09:55:01.643Z,20715
2023-05-05T09:56:01.640Z,20949
2023-05-05T09:57:01.620Z,20971
2023-05-05T09:58:01.660Z,20590
2023-05-05T09:59:01.647Z,21150
2023-05-05T10:00:01.641Z,21113
2023-05-05T10:01:01.630Z,20848
2023-05-05T10:02:01.696Z,21139
2023-05-05T10:03:01.701Z,21086
2023-05-05T10:04:01.814Z,21086
2023-05-05T10:05:02.523Z,21053
2023-05-05T10:06:01.627Z,19759
2023-05-05T10:07:01.656Z,21075
2023-05-05T10:08:01.631Z,21464
2023-05-05T10:09:01.618Z,22037
2023-05-05T10:10:01.620Z,21899
2023-05-05T10:11:01.622Z,22015
2023-05-05T10:12:01.617Z,22055
2023-05-05T10:13:01.706Z,21718
2023-05-05T10:14:01.649Z,21521
2023-05-05T10:15:01.631Z,21683
2023-05-05T10:16:01.707Z,21943
2023-05-05T10:17:01.662Z,21323
2023-05-05T10:18:07.562Z,21091
2023-05-05T10:19:01.662Z,21729
2023-05-05T10:20:01.620Z,20159
2023-05-05T10:21:07.298Z,20159
2023-05-05T10:22:06.103Z,21687
2023-05-05T10:23:06.079Z,21762
2023-05-05T10:24:06.081Z,21954
2023-05-05T10:25:06.075Z,22037
2023-05-05T10:26:06.065Z,22105
2023-05-05T10:27:06.092Z,22127
2023-05-05T10:28:06.063Z,21165
2023-05-05T10:29:06.101Z,21056
2023-05-05T10:30:06.335Z,20422
2023-05-05T10:31:20.030Z,20120
2023-05-05T10:32:21.464Z,20136
2023-05-05T10:33:27.140Z,20378
2023-05-05T10:34:06.231Z,20197
2023-05-05T10:35:06.062Z,20623
2023-05-05T10:36:06.061Z,21709
2023-05-05T10:37:06.051Z,19783
2023-05-05T10:38:06.065Z,20804
2023-05-05T10:39:06.061Z,20909
2023-05-05T10:40:06.160Z,21255
2023-05-05T10:41:06.057Z,23065
2023-05-05T10:42:06.060Z,20656
2023-05-05T10:43:06.062Z,20710
2023-05-05T10:44:06.078Z,20138
2023-05-05T10:45:06.111Z,19936
2023-05-05T10:46:06.096Z,20068
2023-05-05T10:47:06.057Z,20984
2023-05-05T10:48:06.184Z,21265
2023-05-05T10:49:06.132Z,21618
2023-05-05T10:50:06.220Z,21613
2023-05-05T10:51:06.080Z,21235
2023-05-05T10:52:06.081Z,21185
2023-05-05T10:53:06.082Z,21108
2023-05-05T10:54:06.145Z,21159
2023-05-05T10:55:06.061Z,20157
2023-05-05T10:56:06.051Z,20267
2023-05-05T10:57:06.053Z,20195
2023-05-05T10:58:06.062Z,20098
2023-05-05T10:59:06.068Z,20367
2023-05-05T11:00:06.251Z,20420
2023-05-05T11:01:06.097Z,20177
2023-05-05T11:02:06.056Z,20286
2023-05-05T11:03:06.237Z,20286
2023-05-05T11:04:06.114Z,20286
2023-05-05T11:05:06.066Z,20194
2023-05-05T11:06:06.053Z,20446
2023-05-05T11:07:06.068Z,19738
2023-05-05T11:08:06.068Z,21406
2023-05-05T11:09:06.047Z,21569
2023-05-05T11:10:06.257Z,21347
2023-05-05T11:11:06.048Z,21510
2023-05-05T11:12:06.047Z,23600
2023-05-05T11:13:06.136Z,22029
2023-05-05T11:14:06.060Z,21268
2023-05-05T11:15:06.053Z,21303
2023-05-05T11:16:06.087Z,21794
2023-05-05T11:17:06.063Z,20571
2023-05-05T11:18:07.745Z,21016
2023-05-05T11:19:06.054Z,21257
2023-05-05T11:20:06.299Z,21255
2023-05-05T11:21:06.055Z,20113
2023-05-05T11:22:06.103Z,19689
2023-05-05T11:23:06.083Z,19843
2023-05-05T11:24:06.067Z,22492
2023-05-05T11:25:06.053Z,21091
2023-05-05T11:26:06.050Z,21246
2023-05-05T11:27:06.044Z,21182
2023-05-05T11:28:06.063Z,20835
2023-05-05T11:29:06.079Z,20874
2023-05-05T11:30:06.095Z,20747
2023-05-05T11:31:06.070Z,20743
2023-05-05T11:32:06.050Z,20653
2023-05-05T11:33:06.065Z,20665
2023-05-05T11:34:06.064Z,20249
2023-05-05T11:35:06.050Z,20205
2023-05-05T11:36:06.983Z,20336
2023-05-05T11:37:06.046Z,20238
2023-05-05T11:38:06.103Z,19996
2023-05-05T11:39:06.059Z,20122
2023-05-05T11:40:06.185Z,17805
2023-05-05T11:41:06.045Z,19827
2023-05-05T11:42:10.041Z,19097
2023-05-05T11:43:06.068Z,18636
2023-05-05T11:44:06.077Z,19174
2023-05-05T11:45:06.050Z,19305
2023-05-05T11:46:06.057Z,18719
2023-05-05T11:47:06.047Z,19051
2023-05-05T11:48:06.991Z,18317
2023-05-05T11:49:06.045Z,18070
2023-05-05T11:50:06.192Z,18855
2023-05-05T11:51:06.047Z,19121
2023-05-05T11:52:06.082Z,19701
2023-05-05T11:53:06.067Z,19587
2023-05-05T11:54:06.047Z,19889
2023-05-05T11:55:06.045Z,19565
2023-05-05T11:56:06.051Z,19399
2023-05-05T11:57:06.052Z,19136
2023-05-05T11:58:06.071Z,19766
2023-05-05T11:59:06.056Z,20175
2023-05-05T12:00:06.259Z,19878
2023-05-05T12:01:06.051Z,20223
2023-05-05T12:02:06.050Z,19834
2023-05-05T12:03:06.098Z,19976
2023-05-05T12:04:06.129Z,19976
2023-05-05T12:05:06.051Z,18843
2023-05-05T12:06:06.053Z,19384
2023-05-05T12:07:06.045Z,18848
2023-05-05T12:08:06.087Z,19910
2023-05-05T12:09:06.038Z,19537
2023-05-05T12:10:06.175Z,18809
2023-05-05T12:11:06.045Z,17501
2023-05-05T12:12:06.042Z,18577
2023-05-05T12:13:06.126Z,18715
2023-05-05T12:14:06.073Z,19086
2023-05-05T12:15:06.041Z,19504
2023-05-05T12:16:06.079Z,20000
2023-05-05T12:17:06.039Z,21690
2023-05-05T12:18:06.096Z,20100
2023-05-05T12:19:06.065Z,18100
2023-05-05T12:20:06.141Z,19268
2023-05-05T12:21:06.061Z,18931
2023-05-05T12:22:06.034Z,16974
2023-05-05T12:23:06.065Z,18177
2023-05-05T12:24:06.039Z,15691
2023-05-05T12:25:06.049Z,19545
2023-05-05T12:26:06.049Z,19431
2023-05-05T12:27:06.057Z,19563
2023-05-05T12:28:06.092Z,19224
2023-05-05T12:29:06.077Z,19375
2023-05-05T12:30:06.170Z,18623
2023-05-05T12:31:06.078Z,17420
2023-05-05T12:32:06.115Z,17198
2023-05-05T12:33:06.091Z,16509
2023-05-05T12:34:06.066Z,16131
2023-05-05T12:35:06.062Z,17136
2023-05-05T12:36:06.052Z,17904
2023-05-05T12:37:06.054Z,18470
2023-05-05T12:38:06.098Z,17473
2023-05-05T12:39:06.044Z,13158
2023-05-05T12:40:06.392Z,13239
2023-05-05T12:41:06.040Z,14093
2023-05-05T12:42:06.046Z,13895
2023-05-05T12:43:06.076Z,16620
2023-05-05T12:44:06.068Z,17593
2023-05-05T12:45:06.064Z,18970
2023-05-05T12:46:06.215Z,19036
2023-05-05T12:47:06.071Z,19620
2023-05-05T12:48:06.129Z,19139
2023-05-05T12:49:06.080Z,18857
2023-05-05T12:50:06.096Z,18332
2023-05-05T12:51:06.060Z,18935
2023-05-05T12:52:06.065Z,18953
2023-05-05T12:53:06.093Z,18537
2023-05-05T12:54:06.061Z,18111
2023-05-05T12:55:06.181Z,18242
2023-05-05T12:56:06.070Z,18408
2023-05-05T12:57:06.054Z,18500
2023-05-05T12:58:06.071Z,17886
2023-05-05T12:59:06.062Z,17327
2023-05-05T13:00:06.187Z,17958
2023-05-05T13:01:06.078Z,17895
2023-05-05T13:02:06.114Z,18076
2023-05-05T13:03:06.185Z,11551
2023-05-05T13:04:06.072Z,11551
2023-05-05T13:05:06.105Z,13774
2023-05-05T13:06:06.058Z,15449
2023-05-05T13:07:06.057Z,16480
2023-05-05T13:08:06.072Z,18514
2023-05-05T13:09:06.061Z,17869
2023-05-05T13:10:06.057Z,17840
2023-05-05T13:11:06.063Z,17396
2023-05-05T13:12:06.055Z,17514
2023-05-05T13:13:06.085Z,17147
2023-05-05T13:14:06.071Z,17256
2023-05-05T13:15:06.307Z,13906
2023-05-05T13:16:06.115Z,11324
2023-05-05T13:17:06.054Z,10640
2023-05-05T13:18:06.124Z,11708
2023-05-05T13:19:06.050Z,13919
2023-05-05T13:20:06.075Z,13184
2023-05-05T13:21:06.069Z,15772
2023-05-05T13:22:06.050Z,15890
2023-05-05T13:23:06.073Z,15670
2023-05-05T13:24:21.473Z,16037
2023-05-05T13:25:06.058Z,16496
2023-05-05T13:26:06.066Z,16341